Terminal Aerodrome Forecast
Issued by NWS

Home | Current Version | Previous Version | Text Only | Print | Product List | Glossary On
Versions: 1 2 3 4 5 6 7 8 9 10 11 12
000
FTUS46 KLOX 011700 RRA
TAFVNY
TAF
KVNY 011741Z 0118/0218 12005KT P6SM SKC
     FM012100 15010KT P6SM SKC
     FM020300 11006KT P6SM SKC
     FM020600 VRB03KT P6SM BKN200=

USA.gov is the U.S. government's official web portal to all federal, state and local government web resources and services.